createdAt,value
2023-03-15T00:00:15.974Z,98269.60
2023-03-15T00:03:04.221Z,98276.00
2023-03-15T00:05:32.113Z,98281.73
2023-03-15T00:08:04.480Z,98286.09
2023-03-15T00:10:35.275Z,98291.20
2023-03-15T00:13:02.498Z,98299.30
2023-03-15T00:15:52.667Z,98300.17
2023-03-15T00:18:21.783Z,98301.88
2023-03-15T00:20:49.483Z,98309.40
2023-03-15T00:23:17.713Z,98316.77
2023-03-15T00:25:49.638Z,98317.32
2023-03-15T00:28:20.459Z,98315.52
2023-03-15T00:30:47.870Z,98326.89
2023-03-15T00:33:16.911Z,98327.60
2023-03-15T00:35:53.925Z,98337.45
2023-03-15T00:38:21.988Z,98327.18
2023-03-15T00:40:51.991Z,98360.45
2023-03-15T00:43:26.891Z,98381.21
2023-03-15T00:45:56.626Z,98410.85
2023-03-15T00:48:27.265Z,98434.66
2023-03-15T00:51:09.890Z,98440.20
2023-03-15T00:53:39.245Z,98463.77
2023-03-15T00:56:13.140Z,98472.54
2023-03-15T00:58:43.583Z,98499.16
2023-03-15T01:01:14.040Z,98515.70
2023-03-15T01:03:50.929Z,98536.27
2023-03-15T01:06:22.603Z,98555.16
2023-03-15T01:09:10.101Z,98562.76
2023-03-15T01:11:40.463Z,98565.71
2023-03-15T01:14:08.919Z,98583.44
2023-03-15T01:16:39.686Z,98590.42
2023-03-15T01:19:27.071Z,98609.48
2023-03-15T01:22:05.524Z,98622.27
2023-03-15T01:24:33.089Z,98633.84
2023-03-15T01:27:20.542Z,98649.55
2023-03-15T01:30:09.989Z,98643.02
2023-03-15T01:32:59.377Z,98652.55
2023-03-15T01:35:26.732Z,98676.33
2023-03-15T01:38:14.508Z,98683.91
2023-03-15T01:40:54.694Z,98695.91
2023-03-15T01:43:35.363Z,98703.10
2023-03-15T01:46:27.953Z,98702.32
2023-03-15T01:49:18.888Z,98711.44
2023-03-15T01:52:09.806Z,98712.87
2023-03-15T01:55:05.766Z,98728.98
2023-03-15T01:57:57.423Z,98751.39
2023-03-15T02:00:45.338Z,98764.85
2023-03-15T02:03:36.719Z,98774.48
2023-03-15T02:06:24.853Z,98779.84
2023-03-15T02:09:16.039Z,98800.64
2023-03-15T02:12:05.630Z,98813.22
2023-03-15T02:14:55.282Z,98826.95
2023-03-15T02:17:40.157Z,98835.52
2023-03-15T02:20:39.698Z,98853.86
2023-03-15T02:23:15.143Z,98858.80
2023-03-15T02:26:08.736Z,98867.20
2023-03-15T02:28:56.386Z,98862.03
2023-03-15T02:31:38.343Z,98873.89
2023-03-15T02:34:08.954Z,98873.90
2023-03-15T02:36:45.556Z,98883.09
2023-03-15T02:39:20.896Z,98902.75
2023-03-15T02:42:09.039Z,98911.52
2023-03-15T02:44:50.676Z,98914.80
2023-03-15T02:47:26.184Z,98920.01
2023-03-15T02:50:14.272Z,98931.88
2023-03-15T02:52:52.788Z,98945.08
2023-03-15T02:55:40.366Z,98947.25
2023-03-15T02:58:27.848Z,98950.33
2023-03-15T03:01:09.135Z,98954.42
2023-03-15T03:03:48.041Z,98950.48
2023-03-15T03:06:35.452Z,98961.14
2023-03-15T03:09:13.299Z,98974.56
2023-03-15T03:11:48.507Z,98985.55
2023-03-15T03:14:27.214Z,98996.07
2023-03-15T03:17:14.569Z,99002.05
2023-03-15T03:19:42.036Z,99001.53
2023-03-15T03:22:13.411Z,99002.20
2023-03-15T03:25:01.145Z,98999.80
2023-03-15T03:27:48.756Z,99017.49
2023-03-15T03:30:36.288Z,99033.29
2023-03-15T03:33:24.239Z,99032.94
2023-03-15T03:36:13.312Z,99033.79
2023-03-15T03:39:01.748Z,99047.02
2023-03-15T03:41:50.264Z,99049.41
2023-03-15T03:44:37.612Z,99053.55
2023-03-15T03:47:25.239Z,99053.88
2023-03-15T03:50:13.967Z,99054.70
2023-03-15T03:53:01.457Z,99057.08
2023-03-15T03:55:48.755Z,99063.43
2023-03-15T03:58:36.820Z,99073.21
2023-03-15T04:01:24.072Z,99078.15
2023-03-15T04:04:10.091Z,99088.08
2023-03-15T04:06:57.578Z,99092.34
2023-03-15T04:09:45.539Z,99093.73
2023-03-15T04:12:33.584Z,99107.21
2023-03-15T04:15:22.978Z,99115.38
2023-03-15T04:18:10.246Z,99122.04
2023-03-15T04:20:56.034Z,99129.88
2023-03-15T04:23:43.343Z,99133.48
2023-03-15T04:26:31.132Z,99129.38
2023-03-15T04:29:18.548Z,99136.48
2023-03-15T04:32:21.561Z,99137.55
2023-03-15T04:35:12.053Z,99140.98
2023-03-15T04:38:04.153Z,99151.13
2023-03-15T04:41:00.217Z,99158.17
2023-03-15T04:43:46.593Z,99157.33
2023-03-15T04:46:49.533Z,99161.64
2023-03-15T04:49:37.005Z,99170.61
2023-03-15T04:52:24.916Z,99166.52
2023-03-15T04:55:19.080Z,99167.59
2023-03-15T04:58:06.366Z,99169.31
2023-03-15T05:01:12.576Z,99171.84
2023-03-15T05:03:45.727Z,99176.13
2023-03-15T05:06:39.278Z,99181.27
2023-03-15T05:09:24.851Z,99190.07
2023-03-15T05:12:13.725Z,99200.56
2023-03-15T05:15:00.248Z,99208.41
2023-03-15T05:17:55.214Z,99211.30
2023-03-15T05:20:41.062Z,99217.61
2023-03-15T05:23:27.529Z,99219.80
2023-03-15T05:26:14.858Z,99227.88
2023-03-15T05:29:00.930Z,99236.98
2023-03-15T05:32:00.627Z,99229.63
2023-03-15T05:34:48.646Z,99238.61
2023-03-15T05:37:34.141Z,99237.48
2023-03-15T05:40:21.881Z,99239.38
2023-03-15T05:43:15.502Z,99243.17
2023-03-15T05:46:01.175Z,99243.33
2023-03-15T05:48:51.572Z,99249.45
2023-03-15T05:51:47.753Z,99259.19
2023-03-15T05:54:37.757Z,99266.88
2023-03-15T05:57:34.278Z,99281.25
2023-03-15T06:00:39.727Z,99294.09
2023-03-15T06:03:27.695Z,99304.70
2023-03-15T06:06:10.069Z,99306.40
2023-03-15T06:08:57.504Z,99301.75
2023-03-15T06:11:27.182Z,99303.28
2023-03-15T06:13:54.253Z,99307.27
2023-03-15T06:16:39.893Z,99305.88
2023-03-15T06:19:17.187Z,99307.75
2023-03-15T06:21:54.720Z,99311.69
2023-03-15T06:24:42.232Z,99317.34
2023-03-15T06:27:30.561Z,99324.70
2023-03-15T06:30:18.674Z,99329.84
2023-03-15T06:32:59.630Z,99336.65
2023-03-15T06:35:48.202Z,99341.89
2023-03-15T06:38:35.890Z,99348.02
2023-03-15T06:41:17.159Z,99358.66
2023-03-15T06:44:04.696Z,99372.03
2023-03-15T06:46:52.096Z,99380.08
2023-03-15T06:49:39.825Z,99394.98
2023-03-15T06:52:17.508Z,99403.61
2023-03-15T06:54:55.034Z,99406.30
2023-03-15T06:57:22.625Z,99406.52
2023-03-15T07:00:00.083Z,99412.58
2023-03-15T07:02:47.563Z,99416.81
2023-03-15T07:05:15.693Z,99431.90
2023-03-15T07:07:55.689Z,99435.76
2023-03-15T07:10:33.615Z,99427.11
2023-03-15T07:13:21.964Z,99431.91
2023-03-15T07:16:00.182Z,99437.90
2023-03-15T07:18:47.742Z,99445.42
2023-03-15T07:21:18.601Z,99445.16
2023-03-15T07:24:06.417Z,99448.34
2023-03-15T07:26:56.655Z,99450.42
2023-03-15T07:29:44.048Z,99448.13
2023-03-15T07:32:31.232Z,99447.14
2023-03-15T07:35:19.263Z,99453.67
2023-03-15T07:37:57.680Z,99451.41
2023-03-15T07:40:37.908Z,99454.15
2023-03-15T07:43:24.518Z,99452.02
2023-03-15T07:46:09.861Z,99454.89
2023-03-15T07:48:57.295Z,99461.20
2023-03-15T07:51:35.653Z,99462.05
2023-03-15T07:54:16.712Z,99458.14
2023-03-15T07:57:04.128Z,99468.71
2023-03-15T07:59:52.706Z,99472.12
2023-03-15T08:02:40.651Z,99479.73
2023-03-15T08:05:29.273Z,99494.10
2023-03-15T08:07:56.780Z,99498.54
2023-03-15T08:10:45.030Z,99502.11
2023-03-15T08:13:19.507Z,99492.30
2023-03-15T08:16:09.538Z,99494.23
2023-03-15T08:18:56.922Z,99506.80
2023-03-15T08:21:45.829Z,99511.64
2023-03-15T08:24:24.102Z,99511.34
2023-03-15T08:26:51.966Z,99509.92
2023-03-15T08:29:39.360Z,99522.50
2023-03-15T08:32:25.194Z,99531.42
2023-03-15T08:34:55.299Z,99536.55
2023-03-15T08:37:32.660Z,99538.41
2023-03-15T08:40:09.589Z,99543.88
2023-03-15T08:42:46.481Z,99541.66
2023-03-15T08:45:14.982Z,99550.51
2023-03-15T08:47:45.110Z,99556.56
2023-03-15T08:50:33.398Z,99562.89
2023-03-15T08:53:21.015Z,99566.98
2023-03-15T08:56:09.410Z,99567.94
2023-03-15T08:58:46.886Z,99569.70
2023-03-15T09:01:19.166Z,99571.88
2023-03-15T09:04:05.883Z,99577.61
2023-03-15T09:06:43.476Z,99581.85
2023-03-15T09:09:10.690Z,99584.23
2023-03-15T09:11:37.862Z,99590.91
2023-03-15T09:14:15.383Z,99596.33
2023-03-15T09:16:45.176Z,99598.09
2023-03-15T09:19:33.013Z,99596.20
2023-03-15T09:22:34.909Z,99593.68
2023-03-15T09:25:26.960Z,99603.11
2023-03-15T09:28:14.901Z,99613.40
2023-03-15T09:30:52.409Z,99610.06
2023-03-15T09:33:39.734Z,99604.91
2023-03-15T09:36:27.791Z,99613.23
2023-03-15T09:39:06.075Z,99613.54
2023-03-15T09:41:44.501Z,99616.33
2023-03-15T09:44:49.383Z,99610.84
2023-03-15T09:47:42.134Z,99618.83
2023-03-15T09:50:21.860Z,99614.08
2023-03-15T09:53:23.747Z,99606.52
2023-03-15T09:56:02.772Z,99601.54
2023-03-15T09:58:35.982Z,99594.30
2023-03-15T10:01:07.407Z,99599.92
2023-03-15T10:03:42.663Z,99597.16
2023-03-15T10:06:17.898Z,99590.48
2023-03-15T10:08:48.737Z,99585.96
2023-03-15T10:11:21.980Z,99586.98
2023-03-15T10:14:01.071Z,99582.38
2023-03-15T10:16:40.041Z,99587.14
2023-03-15T10:19:15.081Z,99590.10
2023-03-15T10:21:51.525Z,99589.34
2023-03-15T10:24:24.734Z,99595.79
2023-03-15T10:26:54.252Z,99591.23
2023-03-15T10:29:24.316Z,99597.60
2023-03-15T10:31:53.004Z,99596.95
2023-03-15T10:34:20.313Z,99599.05
2023-03-15T10:36:54.506Z,99598.36
2023-03-15T10:39:22.064Z,99599.44
2023-03-15T10:41:56.865Z,99594.71
2023-03-15T10:44:42.684Z,99595.30
2023-03-15T10:47:23.446Z,99595.40
2023-03-15T10:50:02.178Z,99590.06
2023-03-15T10:52:38.901Z,99587.86
2023-03-15T10:55:22.735Z,99589.14
2023-03-15T10:57:57.203Z,99589.38
2023-03-15T11:00:32.003Z,99590.71
2023-03-15T11:03:08.208Z,99589.04
2023-03-15T11:05:44.008Z,99594.47
2023-03-15T11:08:15.866Z,99602.69
2023-03-15T11:10:44.765Z,99591.95
2023-03-15T11:13:20.757Z,99602.92
2023-03-15T11:16:04.756Z,99605.21
2023-03-15T11:18:58.345Z,99600.57
2023-03-15T11:21:31.077Z,99599.89
2023-03-15T11:24:01.231Z,99596.00
2023-03-15T11:26:36.036Z,99593.71
2023-03-15T11:29:09.186Z,99601.65
2023-03-15T11:31:39.275Z,99603.01
2023-03-15T11:34:25.470Z,99612.64
2023-03-15T11:37:07.571Z,99608.38
2023-03-15T11:39:58.802Z,99601.44
2023-03-15T11:42:34.904Z,99597.39
2023-03-15T11:45:20.257Z,99599.05
2023-03-15T11:47:53.385Z,99593.54
2023-03-15T11:50:21.587Z,99604.67
2023-03-15T11:52:55.227Z,99607.16
2023-03-15T11:55:28.678Z,99605.60
2023-03-15T11:57:59.222Z,99611.58
2023-03-15T12:00:55.063Z,99620.50
2023-03-15T12:03:44.427Z,99619.39
2023-03-15T12:06:42.148Z,99623.27
2023-03-15T12:09:56.627Z,99624.83
2023-03-15T12:12:46.177Z,99620.45
2023-03-15T12:15:50.300Z,99631.01
2023-03-15T12:18:33.461Z,99632.59
2023-03-15T12:21:13.265Z,99632.19
2023-03-15T12:24:00.591Z,99635.55
2023-03-15T12:26:51.503Z,99641.83
2023-03-15T12:29:26.038Z,99643.27
2023-03-15T12:31:58.036Z,99651.15
2023-03-15T12:34:46.854Z,99651.51
2023-03-15T12:37:26.977Z,99655.81
2023-03-15T12:40:01.572Z,99659.20
2023-03-15T12:43:11.646Z,99661.27
2023-03-15T12:45:58.962Z,99661.89
2023-03-15T12:48:31.305Z,99670.15
2023-03-15T12:51:33.832Z,99671.20
2023-03-15T12:54:22.241Z,99673.16
2023-03-15T12:56:54.653Z,99672.45
2023-03-15T12:59:42.086Z,99679.66
2023-03-15T13:02:42.582Z,99679.00
2023-03-15T13:05:27.326Z,99684.42
2023-03-15T13:08:22.752Z,99687.69
2023-03-15T13:11:21.520Z,99697.86
2023-03-15T13:14:20.084Z,99703.27
2023-03-15T13:17:09.149Z,99703.23
2023-03-15T13:19:44.103Z,99703.44
2023-03-15T13:22:33.921Z,99707.98
2023-03-15T13:25:09.984Z,99712.16
2023-03-15T13:27:51.434Z,99714.58
2023-03-15T13:30:33.916Z,99719.09
2023-03-15T13:33:26.943Z,99721.60
2023-03-15T13:36:07.174Z,99720.02
2023-03-15T13:38:55.994Z,99726.52
2023-03-15T13:41:33.751Z,99727.75
2023-03-15T13:44:19.739Z,99732.74
2023-03-15T13:47:07.422Z,99735.77
2023-03-15T13:49:57.570Z,99735.02
2023-03-15T13:52:25.338Z,99738.23
2023-03-15T13:54:57.078Z,99739.18
2023-03-15T13:57:25.325Z,99740.00
2023-03-15T14:00:19.173Z,99737.73
2023-03-15T14:03:02.049Z,99740.41
2023-03-15T14:05:49.384Z,99747.44
2023-03-15T14:08:25.869Z,99745.84
2023-03-15T14:11:10.180Z,99750.32
2023-03-15T14:13:54.649Z,99746.73
2023-03-15T14:16:57.282Z,99748.20
2023-03-15T14:19:31.671Z,99753.91
2023-03-15T14:22:01.288Z,99758.14
2023-03-15T14:24:34.921Z,99765.30
2023-03-15T14:27:06.090Z,99770.73
2023-03-15T14:29:35.739Z,99770.48
2023-03-15T14:32:05.485Z,99771.91
2023-03-15T14:34:39.090Z,99772.51
2023-03-15T14:37:26.721Z,99771.87
2023-03-15T14:40:34.913Z,99773.04
2023-03-15T14:43:12.274Z,99776.02
2023-03-15T14:45:51.427Z,99781.96
2023-03-15T14:48:32.762Z,99788.13
2023-03-15T14:51:00.364Z,99788.79
2023-03-15T14:53:50.251Z,99787.70
2023-03-15T14:56:28.262Z,99786.65
2023-03-15T14:59:13.718Z,99788.09
2023-03-15T15:01:46.836Z,99789.48
2023-03-15T15:04:37.681Z,99790.53
2023-03-15T15:07:17.886Z,99792.10
2023-03-15T15:09:58.355Z,99793.84
2023-03-15T15:12:36.895Z,99800.20
2023-03-15T15:15:20.266Z,99799.07
2023-03-15T15:17:50.953Z,99798.67
2023-03-15T15:20:19.126Z,99799.38
2023-03-15T15:22:47.083Z,99800.77
2023-03-15T15:25:19.926Z,99809.46
2023-03-15T15:27:49.733Z,99812.23
2023-03-15T15:30:22.575Z,99811.37
2023-03-15T15:33:10.209Z,99814.95
2023-03-15T15:35:49.418Z,99819.42
2023-03-15T15:38:19.105Z,99823.48
2023-03-15T15:40:46.629Z,99832.56
2023-03-15T15:43:14.800Z,99840.21
2023-03-15T15:45:42.119Z,99838.93
2023-03-15T15:48:12.458Z,99845.55
2023-03-15T15:50:39.822Z,99849.02
2023-03-15T15:53:07.901Z,99849.90
2023-03-15T15:55:57.890Z,99855.11
2023-03-15T15:58:46.112Z,99860.31
2023-03-15T16:01:27.487Z,99865.05
2023-03-15T16:03:54.886Z,99868.59
2023-03-15T16:06:43.969Z,99866.59
2023-03-15T16:09:24.079Z,99865.79
2023-03-15T16:12:02.235Z,99867.96
2023-03-15T16:14:32.623Z,99868.73
2023-03-15T16:17:23.048Z,99875.36
2023-03-15T16:20:13.885Z,99877.02
2023-03-15T16:22:54.679Z,99879.17
2023-03-15T16:25:27.762Z,99879.62
2023-03-15T16:28:15.521Z,99882.47
2023-03-15T16:31:03.089Z,99887.20
2023-03-15T16:33:30.599Z,99891.55
2023-03-15T16:35:57.734Z,99894.20
2023-03-15T16:38:45.387Z,99898.73
2023-03-15T16:41:23.066Z,99899.48
2023-03-15T16:44:14.881Z,99904.89
2023-03-15T16:46:51.510Z,99907.39
2023-03-15T16:49:21.622Z,99906.23
2023-03-15T16:52:10.794Z,99912.98
2023-03-15T16:54:52.011Z,99916.64
2023-03-15T16:57:22.981Z,99923.59
2023-03-15T17:00:00.367Z,99930.18
2023-03-15T17:02:40.715Z,99930.90
2023-03-15T17:05:29.819Z,99932.33
2023-03-15T17:08:21.066Z,99934.45
2023-03-15T17:10:49.574Z,99936.55
2023-03-15T17:13:40.810Z,99942.45
2023-03-15T17:16:12.062Z,99942.48
2023-03-15T17:18:49.731Z,99945.29
2023-03-15T17:21:21.506Z,99944.48
2023-03-15T17:24:10.869Z,99945.03
2023-03-15T17:26:48.769Z,99949.39
2023-03-15T17:29:16.794Z,99949.09
2023-03-15T17:31:45.057Z,99952.08
2023-03-15T17:34:12.698Z,99957.08
2023-03-15T17:36:41.151Z,99957.64
2023-03-15T17:39:10.679Z,99961.64
2023-03-15T17:42:00.136Z,99965.80
2023-03-15T17:44:27.820Z,99963.05
2023-03-15T17:47:15.846Z,99968.41
2023-03-15T17:50:03.215Z,99968.44
2023-03-15T17:52:54.301Z,99967.11
2023-03-15T17:55:24.231Z,99966.27
2023-03-15T17:57:55.741Z,99966.95
2023-03-15T18:00:33.483Z,99975.92
2023-03-15T18:03:22.021Z,99978.19
2023-03-15T18:06:10.191Z,99979.23
2023-03-15T18:08:57.689Z,99989.05
2023-03-15T18:11:37.233Z,99993.00
2023-03-15T18:14:24.622Z,99992.33
2023-03-15T18:16:52.045Z,99993.91
2023-03-15T18:19:25.506Z,99996.34
2023-03-15T18:22:04.008Z,99999.28
2023-03-15T18:24:40.176Z,100001.71
2023-03-15T18:27:07.460Z,100002.41
2023-03-15T18:29:37.829Z,100006.39
2023-03-15T18:32:25.508Z,100009.66
2023-03-15T18:34:56.626Z,100015.67
2023-03-15T18:37:23.977Z,100019.27
2023-03-15T18:40:05.393Z,100024.45
2023-03-15T18:42:43.074Z,100026.52
2023-03-15T18:45:23.206Z,100033.91
2023-03-15T18:47:51.030Z,100032.89
2023-03-15T18:50:33.880Z,100034.62
2023-03-15T18:53:10.628Z,100036.00
2023-03-15T18:55:57.362Z,100034.63
2023-03-15T18:58:44.788Z,100032.56
2023-03-15T19:01:12.340Z,100033.23
2023-03-15T19:03:59.817Z,100035.64
2023-03-15T19:06:47.387Z,100039.08
2023-03-15T19:09:34.783Z,100038.58
2023-03-15T19:12:05.061Z,100038.23
2023-03-15T19:14:42.906Z,100038.42
2023-03-15T19:17:28.695Z,100040.83
2023-03-15T19:20:06.643Z,100046.85
2023-03-15T19:22:54.438Z,100048.58
2023-03-15T19:25:26.209Z,100050.96
2023-03-15T19:27:57.665Z,100047.00
2023-03-15T19:30:45.213Z,100048.56
2023-03-15T19:33:33.062Z,100056.80
2023-03-15T19:36:03.080Z,100057.49
2023-03-15T19:38:51.596Z,100065.22
2023-03-15T19:41:23.435Z,100064.55
2023-03-15T19:44:03.414Z,100065.58
2023-03-15T19:46:51.226Z,100063.34
2023-03-15T19:49:21.665Z,100061.27
2023-03-15T19:52:09.659Z,100061.45
2023-03-15T19:54:50.172Z,100064.22
2023-03-15T19:57:17.785Z,100068.16
2023-03-15T19:59:45.598Z,100065.08
2023-03-15T20:02:33.393Z,100066.77
2023-03-15T20:05:22.637Z,100068.31
2023-03-15T20:08:04.345Z,100071.41
2023-03-15T20:10:40.752Z,100072.44
2023-03-15T20:13:18.798Z,100073.46
2023-03-15T20:16:06.636Z,100073.81
2023-03-15T20:18:45.159Z,100073.64
2023-03-15T20:21:15.802Z,100074.16
2023-03-15T20:24:04.623Z,100078.10
2023-03-15T20:26:52.882Z,100079.14
2023-03-15T20:29:40.340Z,100080.34
2023-03-15T20:32:28.509Z,100082.71
2023-03-15T20:35:16.202Z,100087.00
2023-03-15T20:38:08.348Z,100089.56
2023-03-15T20:40:46.350Z,100090.42
2023-03-15T20:43:33.869Z,100089.74
2023-03-15T20:46:22.931Z,100092.66
2023-03-15T20:48:50.226Z,100093.69
2023-03-15T20:51:17.555Z,100089.23
2023-03-15T20:53:54.925Z,100096.43
2023-03-15T20:56:34.357Z,100098.83
2023-03-15T20:59:14.547Z,100097.98
2023-03-15T21:02:03.090Z,100099.34
2023-03-15T21:04:33.340Z,100100.02
2023-03-15T21:07:11.814Z,100104.48
2023-03-15T21:09:59.235Z,100106.36
2023-03-15T21:12:46.750Z,100110.31
2023-03-15T21:15:34.227Z,100115.45
2023-03-15T21:18:10.982Z,100115.80
2023-03-15T21:21:03.692Z,100116.99
2023-03-15T21:23:51.090Z,100117.67
2023-03-15T21:26:32.068Z,100114.59
2023-03-15T21:29:01.504Z,100115.95
2023-03-15T21:31:31.978Z,100121.27
2023-03-15T21:34:08.262Z,100129.16
2023-03-15T21:36:55.805Z,100130.88
2023-03-15T21:39:43.342Z,100131.39
2023-03-15T21:42:31.056Z,100138.41
2023-03-15T21:45:14.037Z,100138.92
2023-03-15T21:48:01.692Z,100140.48
2023-03-15T21:50:50.179Z,100141.16
2023-03-15T21:53:38.735Z,100141.98
2023-03-15T21:56:17.015Z,100141.13
2023-03-15T21:58:46.819Z,100144.21
2023-03-15T22:01:15.080Z,100144.89
2023-03-15T22:03:44.473Z,100147.46
2023-03-15T22:06:32.510Z,100155.17
2023-03-15T22:09:19.904Z,100160.31
2023-03-15T22:12:07.960Z,100158.93
2023-03-15T22:14:38.473Z,100163.90
2023-03-15T22:17:28.273Z,100165.10
2023-03-15T22:20:18.908Z,100165.78
2023-03-15T22:22:50.081Z,100168.70
2023-03-15T22:25:38.877Z,100171.42
2023-03-15T22:28:26.659Z,100175.34
2023-03-15T22:30:57.484Z,100173.95
2023-03-15T22:33:37.672Z,100178.91
2023-03-15T22:36:23.495Z,100183.20
2023-03-15T22:39:05.140Z,100186.44
2023-03-15T22:41:45.372Z,100188.96
2023-03-15T22:44:25.491Z,100194.09
2023-03-15T22:47:04.096Z,100191.85
2023-03-15T22:49:41.697Z,100194.59
2023-03-15T22:52:29.123Z,100197.32
2023-03-15T22:55:08.225Z,100203.30
2023-03-15T22:57:55.480Z,100206.52
2023-03-15T23:00:45.115Z,100203.92
2023-03-15T23:03:32.658Z,100209.90
2023-03-15T23:06:20.620Z,100208.17
2023-03-15T23:09:07.994Z,100217.94
2023-03-15T23:11:46.646Z,100215.17
2023-03-15T23:14:34.055Z,100216.89
2023-03-15T23:17:12.838Z,100217.89
2023-03-15T23:20:00.384Z,100219.05
2023-03-15T23:22:49.058Z,100220.74
2023-03-15T23:25:40.397Z,100224.33
2023-03-15T23:28:27.860Z,100227.37
2023-03-15T23:31:15.409Z,100227.66
2023-03-15T23:33:56.820Z,100230.38
2023-03-15T23:36:45.389Z,100233.42
2023-03-15T23:39:32.902Z,100234.93
2023-03-15T23:42:20.498Z,100241.55
2023-03-15T23:45:10.895Z,100239.64
2023-03-15T23:47:58.922Z,100241.16
2023-03-15T23:50:27.176Z,100242.69
2023-03-15T23:53:05.294Z,100246.09
2023-03-15T23:55:54.259Z,100252.05
2023-03-15T23:58:41.859Z,100256.63
